Dong Fang Chun — BRZL — position and weather

sailwx.info

Track history (hours):
 
Tides and Currents Weather Stations Pressure Air Temp Water Temp Dewpoint Dewpoint Depression Visibility Wind Speed Wind Dir Waves Ship Positions

Dong Fang Chun

Last reported at 2014-Jul-24 13:12 UTC. Time now 2014-Jul-24 14:42 UTC.
Position N 22°29' E 113°55'.

Length 23 m; draft 1.4 m.

Type: High speed craft. MMSI: 412461320.

Date/timePositionNaut miles runAvg speedWind from/ knotsBaromVisibWave heightAir tempDewpointWater temp
2014-Jul-24 13:12N 22°29' E 113°55'1319.7
2014-Jul-24 12:33N 22°20' E 113°45'1010.2
2014-Jul-24 11:32N 22°14' E 113°35'2019.0
2014-Jul-24 10:28N 22°26' E 113°53'0 0.5
2014-Jul-24 09:34N 22°26' E 113°54'2117.7
2014-Jul-24 08:23N 22°14' E 113°35'2 2.7
2014-Jul-24 07:33N 22°16' E 113°37'2120.4
2014-Jul-24 06:33N 22°29' E 113°55'1514.7
2014-Jul-24 05:30N 22°18' E 113°42'5 5.3
2014-Jul-24 04:33N 22°16' E 113°38'2020.3
2014-Jul-24 03:33N 22°29' E 113°55'3 2.7
2014-Jul-24 02:33N 22°26' E 113°54'2120.6
2014-Jul-24 01:33N 22°14' E 113°35'1313.5
2014-Jul-24 00:34N 22°22' E 113°48'10 9.4
2014-Jul-23 23:32N 22°29' E 113°55'0 0.0
2014-Jul-23 13:12N 22°29' E 113°55'1320.0
2014-Jul-23 12:33N 22°20' E 113°45'1010.1
2014-Jul-23 11:33N 22°14' E 113°35'2018.3
2014-Jul-23 10:28N 22°26' E 113°53'1 0.7
2014-Jul-23 09:33N 22°26' E 113°54'2120.7
2014-Jul-23 08:33N 22°14' E 113°35'1 1.2
2014-Jul-23 07:34N 22°15' E 113°36'2221.8
2014-Jul-23 06:33N 22°29' E 113°55'1514.3
2014-Jul-23 05:32N 22°19' E 113°43'7 6.8
2014-Jul-23 04:33N 22°15' E 113°37'2121.1
2014-Jul-23 03:33N 22°29' E 113°55'3 3.3
2014-Jul-23 02:34N 22°26' E 113°53'2019.7
2014-Jul-23 01:33N 22°14' E 113°35'1313.5
2014-Jul-23 00:33N 22°21' E 113°48'10 9.8
2014-Jul-22 23:33N 22°29' E 113°55'0 0.0
2014-Jul-22 12:13N 22°29' E 113°55'0 0.0
2014-Jul-22 10:33N 22°29' E 113°55'7 5.2
2014-Jul-22 09:13N 22°22' E 113°55'710.5
2014-Jul-22 08:33N 22°29' E 113°55'6 4.3
2014-Jul-22 07:04N 22°22' E 113°55'612.7
2014-Jul-22 06:33N 22°29' E 113°55'1514.0
2014-Jul-22 05:29N 22°19' E 113°43'7 8.1
2014-Jul-22 04:33N 22°14' E 113°36'2322.5
2014-Jul-22 03:33N 22°29' E 113°55'4 3.7
2014-Jul-22 02:33N 22°25' E 113°53'2019.6
2014-Jul-22 01:33N 22°14' E 113°35'1313.5
2014-Jul-22 00:33N 22°22' E 113°48'10 9.6
2014-Jul-21 23:33N 22°29' E 113°55'2 0.2
2014-Jul-21 13:33N 22°27' E 113°54'2120.1
2014-Jul-21 12:30N 22°14' E 113°35'0 0.0
2014-Jul-21 11:33N 22°14' E 113°35'1918.5
2014-Jul-21 10:31N 22°25' E 113°53'1 1.0
2014-Jul-21 09:33N 22°26' E 113°54'2019.8
2014-Jul-21 08:32N 22°14' E 113°35'1 1.3
2014-Jul-21 07:34N 22°15' E 113°36'2221.7
2014-Jul-21 06:33N 22°29' E 113°55'1514.0
2014-Jul-21 05:30N 22°19' E 113°43'8 8.5
2014-Jul-21 04:34N 22°14' E 113°36'2322.7
2014-Jul-21 03:33N 22°29' E 113°55'0 0.0
2014-Jul-20 12:15N 22°29' E 113°55'0 0.0
2014-Jul-20 10:33N 22°29' E 113°55'0 0.0
2014-Jul-20 08:33N 22°29' E 113°55'0 0.1
2014-Jul-20 07:33N 22°29' E 113°55'0 0.0
2014-Jul-20 06:33N 22°29' E 113°55'0 0.0
2014-Jul-20 05:33N 22°29' E 113°55'0 0.0
2014-Jul-20 04:33N 22°29' E 113°55'0 0.0
2014-Jul-20 03:33N 22°29' E 113°55'0 0.0
2014-Jul-20 02:33N 22°29' E 113°55'0 0.0
2014-Jul-20 01:33N 22°29' E 113°55'2 0.1
2014-Jul-19 09:34N 22°27' E 113°54'2221.0
2014-Jul-19 08:32N 22°15' E 113°35'1313.6
2014-Jul-19 07:33N 22°21' E 113°48'8 8.0
2014-Jul-19 06:33N 22°27' E 113°54'2120.9
2014-Jul-19 05:33N 22°14' E 113°35'1313.1
2014-Jul-19 04:33N 22°22' E 113°47'10 0.3
2014-Jul-17 13:15N 22°29' E 113°55'0 0.0
2014-Jul-17 12:33N 22°29' E 113°55'0 0.0
2014-Jul-17 10:33N 22°29' E 113°55'0 0.0
2014-Jul-17 08:34N 22°29' E 113°55'0 0.0
2014-Jul-17 06:33N 22°29' E 113°55'1614.5
2014-Jul-17 05:29N 22°18' E 113°42'5 5.3
2014-Jul-17 04:33N 22°16' E 113°37'2019.9
2014-Jul-17 03:32N 22°29' E 113°55'1313.5
2014-Jul-17 02:33N 22°19' E 113°44'9 8.6
2014-Jul-17 01:33N 22°15' E 113°36'2221.9
2014-Jul-17 00:34N 22°29' E 113°55'0 0.0
2014-Jul-16 12:33N 22°29' E 113°55'0 0.0
2014-Jul-16 10:33N 22°29' E 113°55'0 0.0
2014-Jul-16 08:34N 22°29' E 113°55'0 0.0
2014-Jul-16 06:33N 22°29' E 113°55'1313.0
2014-Jul-16 05:32N 22°20' E 113°44'7 7.4
2014-Jul-16 04:33N 22°16' E 113°37'2020.3
2014-Jul-16 03:33N 22°29' E 113°55'1313.1
2014-Jul-16 02:33N 22°20' E 113°44'8 8.4
2014-Jul-16 01:33N 22°15' E 113°37'2121.4
2014-Jul-16 00:33N 22°29' E 113°55'0 0.1
2014-Jul-15 23:33N 22°29' E 113°55'5 0.5
2014-Jul-15 13:34N 22°24' E 113°54'1 1.3
2014-Jul-15 12:33N 22°25' E 113°54'4 2.0
2014-Jul-15 10:33N 22°29' E 113°55'1 0.3
2014-Jul-15 08:34N 22°28' E 113°55'1 0.3
2014-Jul-15 06:32N 22°29' E 113°55'0 0.1
2014-Jul-15 05:33N 22°29' E 113°55'0 0.0
2014-Jul-15 04:33N 22°29' E 113°55'0 0.0
2014-Jul-15 03:33N 22°29' E 113°55'0 0.0
2014-Jul-15 02:33N 22°29' E 113°55'2 1.6
2014-Jul-15 01:34N 22°27' E 113°54'2221.2
2014-Jul-15 00:32N 22°14' E 113°35'3 0.2
2014-Jul-14 13:34N 22°16' E 113°38'  
Track history (hours):
 
Tides and Currents Weather Stations Pressure Air Temp Water Temp Dewpoint Dewpoint Depression Visibility Wind Speed Wind Dir Waves Ship Positions

Dong Fang Chun

Last reported at 2014-Jul-24 13:12 UTC. Time now 2014-Jul-24 14:42 UTC.
Position N 22°29' E 113°55'.

Length 23 m; draft 1.4 m.

Type: High speed craft. MMSI: 412461320.

Date/timePositionNaut miles runAvg speedWind from/ knotsBaromVisibWave heightAir tempDewpointWater temp
2014-Jul-24 13:12N 22°29' E 113°55'1319.7
2014-Jul-24 12:33N 22°20' E 113°45'1010.2
2014-Jul-24 11:32N 22°14' E 113°35'2019.0
2014-Jul-24 10:28N 22°26' E 113°53'0 0.5
2014-Jul-24 09:34N 22°26' E 113°54'2117.7
2014-Jul-24 08:23N 22°14' E 113°35'2 2.7
2014-Jul-24 07:33N 22°16' E 113°37'2120.4
2014-Jul-24 06:33N 22°29' E 113°55'1514.7
2014-Jul-24 05:30N 22°18' E 113°42'5 5.3
2014-Jul-24 04:33N 22°16' E 113°38'2020.3
2014-Jul-24 03:33N 22°29' E 113°55'3 2.7
2014-Jul-24 02:33N 22°26' E 113°54'2120.6
2014-Jul-24 01:33N 22°14' E 113°35'1313.5
2014-Jul-24 00:34N 22°22' E 113°48'10 9.4
2014-Jul-23 23:32N 22°29' E 113°55'0 0.0
2014-Jul-23 13:12N 22°29' E 113°55'1320.0
2014-Jul-23 12:33N 22°20' E 113°45'1010.1
2014-Jul-23 11:33N 22°14' E 113°35'2018.3
2014-Jul-23 10:28N 22°26' E 113°53'1 0.7
2014-Jul-23 09:33N 22°26' E 113°54'2120.7
2014-Jul-23 08:33N 22°14' E 113°35'1 1.2
2014-Jul-23 07:34N 22°15' E 113°36'2221.8
2014-Jul-23 06:33N 22°29' E 113°55'1514.3
2014-Jul-23 05:32N 22°19' E 113°43'7 6.8
2014-Jul-23 04:33N 22°15' E 113°37'2121.1
2014-Jul-23 03:33N 22°29' E 113°55'3 3.3
2014-Jul-23 02:34N 22°26' E 113°53'2019.7
2014-Jul-23 01:33N 22°14' E 113°35'1313.5
2014-Jul-23 00:33N 22°21' E 113°48'10 9.8
2014-Jul-22 23:33N 22°29' E 113°55'0 0.0
2014-Jul-22 12:13N 22°29' E 113°55'0 0.0
2014-Jul-22 10:33N 22°29' E 113°55'7 5.2
2014-Jul-22 09:13N 22°22' E 113°55'710.5
2014-Jul-22 08:33N 22°29' E 113°55'6 4.3
2014-Jul-22 07:04N 22°22' E 113°55'612.7
2014-Jul-22 06:33N 22°29' E 113°55'1514.0
2014-Jul-22 05:29N 22°19' E 113°43'7 8.1
2014-Jul-22 04:33N 22°14' E 113°36'2322.5
2014-Jul-22 03:33N 22°29' E 113°55'4 3.7
2014-Jul-22 02:33N 22°25' E 113°53'2019.6
2014-Jul-22 01:33N 22°14' E 113°35'1313.5
2014-Jul-22 00:33N 22°22' E 113°48'10 9.6
2014-Jul-21 23:33N 22°29' E 113°55'2 0.2
2014-Jul-21 13:33N 22°27' E 113°54'2120.1
2014-Jul-21 12:30N 22°14' E 113°35'0 0.0
2014-Jul-21 11:33N 22°14' E 113°35'1918.5
2014-Jul-21 10:31N 22°25' E 113°53'1 1.0
2014-Jul-21 09:33N 22°26' E 113°54'2019.8
2014-Jul-21 08:32N 22°14' E 113°35'1 1.3
2014-Jul-21 07:34N 22°15' E 113°36'2221.7
2014-Jul-21 06:33N 22°29' E 113°55'1514.0
2014-Jul-21 05:30N 22°19' E 113°43'8 8.5
2014-Jul-21 04:34N 22°14' E 113°36'2322.7
2014-Jul-21 03:33N 22°29' E 113°55'0 0.0
2014-Jul-20 12:15N 22°29' E 113°55'0 0.0
2014-Jul-20 10:33N 22°29' E 113°55'0 0.0
2014-Jul-20 08:33N 22°29' E 113°55'0 0.1
2014-Jul-20 07:33N 22°29' E 113°55'0 0.0
2014-Jul-20 06:33N 22°29' E 113°55'0 0.0
2014-Jul-20 05:33N 22°29' E 113°55'0 0.0
2014-Jul-20 04:33N 22°29' E 113°55'0 0.0
2014-Jul-20 03:33N 22°29' E 113°55'0 0.0
2014-Jul-20 02:33N 22°29' E 113°55'0 0.0
2014-Jul-20 01:33N 22°29' E 113°55'2 0.1
2014-Jul-19 09:34N 22°27' E 113°54'2221.0
2014-Jul-19 08:32N 22°15' E 113°35'1313.6
2014-Jul-19 07:33N 22°21' E 113°48'8 8.0
2014-Jul-19 06:33N 22°27' E 113°54'2120.9
2014-Jul-19 05:33N 22°14' E 113°35'1313.1
2014-Jul-19 04:33N 22°22' E 113°47'10 0.3
2014-Jul-17 13:15N 22°29' E 113°55'0 0.0
2014-Jul-17 12:33N 22°29' E 113°55'0 0.0
2014-Jul-17 10:33N 22°29' E 113°55'0 0.0
2014-Jul-17 08:34N 22°29' E 113°55'0 0.0
2014-Jul-17 06:33N 22°29' E 113°55'1614.5
2014-Jul-17 05:29N 22°18' E 113°42'5 5.3
2014-Jul-17 04:33N 22°16' E 113°37'2019.9
2014-Jul-17 03:32N 22°29' E 113°55'1313.5
2014-Jul-17 02:33N 22°19' E 113°44'9 8.6
2014-Jul-17 01:33N 22°15' E 113°36'2221.9
2014-Jul-17 00:34N 22°29' E 113°55'0 0.0
2014-Jul-16 12:33N 22°29' E 113°55'0 0.0
2014-Jul-16 10:33N 22°29' E 113°55'0 0.0
2014-Jul-16 08:34N 22°29' E 113°55'0 0.0
2014-Jul-16 06:33N 22°29' E 113°55'1313.0
2014-Jul-16 05:32N 22°20' E 113°44'7 7.4
2014-Jul-16 04:33N 22°16' E 113°37'2020.3
2014-Jul-16 03:33N 22°29' E 113°55'1313.1
2014-Jul-16 02:33N 22°20' E 113°44'8 8.4
2014-Jul-16 01:33N 22°15' E 113°37'2121.4
2014-Jul-16 00:33N 22°29' E 113°55'0 0.1
2014-Jul-15 23:33N 22°29' E 113°55'5 0.5
2014-Jul-15 13:34N 22°24' E 113°54'1 1.3
2014-Jul-15 12:33N 22°25' E 113°54'4 2.0
2014-Jul-15 10:33N 22°29' E 113°55'1 0.3
2014-Jul-15 08:34N 22°28' E 113°55'1 0.3
2014-Jul-15 06:32N 22°29' E 113°55'0 0.1
2014-Jul-15 05:33N 22°29' E 113°55'0 0.0
2014-Jul-15 04:33N 22°29' E 113°55'0 0.0
2014-Jul-15 03:33N 22°29' E 113°55'0 0.0
2014-Jul-15 02:33N 22°29' E 113°55'2 1.6
2014-Jul-15 01:34N 22°27' E 113°54'2221.2
2014-Jul-15 00:32N 22°14' E 113°35'3 0.2
2014-Jul-14 13:34N 22°16' E 113°38'  

Dump ship's entire track history